createdAt,value
2019-03-24T00:00:12.360Z,6.60
2019-03-24T00:02:40.641Z,6.50
2019-03-24T00:05:08.873Z,6.70
2019-03-24T00:07:37.101Z,7.00
2019-03-24T00:10:06.994Z,7.00
2019-03-24T00:12:35.212Z,7.00
2019-03-24T00:15:05.489Z,6.90
2019-03-24T00:17:33.713Z,6.90
2019-03-24T00:20:01.949Z,7.00
2019-03-24T00:22:30.180Z,6.90
2019-03-24T00:24:58.429Z,7.00
2019-03-24T00:27:26.660Z,7.00
2019-03-24T00:29:56.521Z,6.90
2019-03-24T00:32:24.746Z,6.80
2019-03-24T00:34:52.973Z,6.70
2019-03-24T00:37:21.215Z,6.60
2019-03-24T00:39:49.454Z,6.40
2019-03-24T00:42:17.685Z,6.40
2019-03-24T00:44:45.973Z,6.30
2019-03-24T00:47:14.319Z,6.20
2019-03-24T00:49:42.619Z,6.10
2019-03-24T00:52:10.850Z,6.20
2019-03-24T00:54:39.088Z,6.30
2019-03-24T00:57:07.329Z,6.20
2019-03-24T00:59:35.565Z,6.00
2019-03-24T01:02:03.796Z,5.90
2019-03-24T01:04:32.051Z,6.00
2019-03-24T01:07:00.336Z,6.10
2019-03-24T01:09:28.579Z,6.20
2019-03-24T01:11:56.808Z,6.20
2019-03-24T01:14:25.037Z,6.20
2019-03-24T01:16:53.265Z,6.20
2019-03-24T01:19:21.508Z,6.20
2019-03-24T01:21:49.740Z,6.20
2019-03-24T01:24:17.992Z,6.10
2019-03-24T01:26:46.212Z,6.20
2019-03-24T01:29:14.454Z,6.20
2019-03-24T01:31:42.681Z,6.10
2019-03-24T01:34:11.067Z,6.10
2019-03-24T01:36:40.322Z,6.10
2019-03-24T01:39:08.560Z,6.10
2019-03-24T01:41:36.796Z,6.10
2019-03-24T01:44:05.029Z,6.10
2019-03-24T01:46:33.260Z,6.00
2019-03-24T01:49:01.532Z,6.00
2019-03-24T01:51:29.769Z,6.10
2019-03-24T01:53:57.996Z,6.00
2019-03-24T01:56:26.237Z,6.00
2019-03-24T01:58:54.465Z,5.80
2019-03-24T02:01:22.704Z,5.80
2019-03-24T02:03:50.995Z,5.70
2019-03-24T02:06:19.232Z,5.80
2019-03-24T02:08:47.472Z,5.70
2019-03-24T02:11:15.713Z,5.70
2019-03-24T02:13:43.932Z,5.70
2019-03-24T02:16:12.161Z,5.60
2019-03-24T02:18:40.397Z,5.60
2019-03-24T02:21:08.620Z,5.60
2019-03-24T02:23:36.858Z,5.40
2019-03-24T02:26:05.083Z,5.30
2019-03-24T02:28:33.315Z,5.30
2019-03-24T02:31:01.550Z,5.30
2019-03-24T02:33:29.784Z,5.10
2019-03-24T02:35:58.018Z,5.00
2019-03-24T02:38:26.262Z,5.00
2019-03-24T02:40:54.763Z,4.80
2019-03-24T02:43:23.008Z,4.90
2019-03-24T02:45:51.225Z,4.80
2019-03-24T02:48:19.456Z,4.80
2019-03-24T02:50:47.691Z,4.70
2019-03-24T02:53:15.914Z,4.60
2019-03-24T02:55:44.157Z,4.40
2019-03-24T02:58:12.379Z,4.20
2019-03-24T03:00:40.630Z,4.20
2019-03-24T03:03:08.913Z,4.20
2019-03-24T03:05:37.136Z,4.30
2019-03-24T03:08:05.385Z,4.30
2019-03-24T03:10:33.644Z,4.50
2019-03-24T03:13:01.883Z,4.40
2019-03-24T03:15:30.107Z,4.40
2019-03-24T03:17:58.346Z,4.60
2019-03-24T03:20:26.569Z,4.80
2019-03-24T03:22:54.813Z,4.70
2019-03-24T03:25:23.041Z,4.70
2019-03-24T03:27:51.279Z,4.70
2019-03-24T03:30:19.519Z,4.70
2019-03-24T03:32:47.756Z,4.80
2019-03-24T03:35:15.982Z,4.80
2019-03-24T03:37:44.373Z,4.80
2019-03-24T03:40:13.095Z,4.80
2019-03-24T03:42:41.327Z,4.90
2019-03-24T03:45:10.326Z,5.10
2019-03-24T03:47:39.298Z,5.20
2019-03-24T03:50:07.582Z,5.10
2019-03-24T03:52:35.823Z,5.10
2019-03-24T03:55:05.549Z,5.20
2019-03-24T03:57:33.899Z,5.20
2019-03-24T04:00:02.148Z,5.10
2019-03-24T04:02:30.425Z,5.00
2019-03-24T04:04:58.664Z,4.90
2019-03-24T04:07:26.966Z,4.90
2019-03-24T04:09:55.194Z,4.80
2019-03-24T04:12:23.421Z,4.80
2019-03-24T04:14:51.666Z,4.70
2019-03-24T04:17:19.893Z,4.70
2019-03-24T04:19:48.126Z,4.70
2019-03-24T04:22:16.376Z,4.60
2019-03-24T04:24:44.596Z,4.60
2019-03-24T04:27:12.833Z,4.40
2019-03-24T04:29:41.080Z,4.40
2019-03-24T04:32:09.305Z,4.30
2019-03-24T04:34:37.539Z,4.20
2019-03-24T04:37:05.777Z,4.10
2019-03-24T04:39:34.009Z,4.20
2019-03-24T04:42:02.253Z,4.40
2019-03-24T04:44:30.518Z,4.40
2019-03-24T04:46:58.785Z,4.40
2019-03-24T04:49:27.044Z,4.40
2019-03-24T04:51:55.277Z,4.20
2019-03-24T04:54:23.505Z,4.30
2019-03-24T04:56:51.800Z,4.10
2019-03-24T04:59:20.043Z,4.00
2019-03-24T05:01:48.269Z,3.90
2019-03-24T05:04:16.517Z,3.90
2019-03-24T05:06:44.756Z,3.80
2019-03-24T05:09:12.983Z,3.80
2019-03-24T05:11:41.216Z,3.40
2019-03-24T05:14:09.455Z,3.40
2019-03-24T05:16:37.680Z,3.50
2019-03-24T05:19:05.917Z,3.50
2019-03-24T05:21:34.144Z,3.50
2019-03-24T05:24:02.368Z,3.60
2019-03-24T05:26:30.612Z,3.60
2019-03-24T05:28:58.841Z,3.60
2019-03-24T05:31:27.082Z,3.60
2019-03-24T05:33:55.316Z,3.60
2019-03-24T05:36:23.557Z,3.60
2019-03-24T05:38:51.772Z,3.70
2019-03-24T05:41:20.001Z,3.80
2019-03-24T05:43:48.232Z,3.90
2019-03-24T05:46:16.452Z,4.00
2019-03-24T05:48:44.685Z,4.00
2019-03-24T05:51:12.928Z,4.10
2019-03-24T05:53:41.178Z,4.10
2019-03-24T05:56:09.400Z,4.10
2019-03-24T05:58:37.647Z,4.10
2019-03-24T06:01:05.949Z,4.10
2019-03-24T06:03:34.177Z,4.20
2019-03-24T06:06:02.401Z,4.30
2019-03-24T06:08:30.812Z,4.40
2019-03-24T06:10:59.043Z,4.50
2019-03-24T06:13:27.269Z,4.50
2019-03-24T06:15:55.501Z,4.50
2019-03-24T06:18:23.744Z,4.70
2019-03-24T06:20:52.004Z,4.70
2019-03-24T06:23:20.224Z,4.80
2019-03-24T06:25:48.453Z,4.90
2019-03-24T06:28:16.689Z,4.80
2019-03-24T06:30:45.004Z,4.80
2019-03-24T06:33:13.237Z,4.80
2019-03-24T06:35:41.470Z,4.80
2019-03-24T06:38:09.705Z,4.80
2019-03-24T06:40:37.937Z,4.70
2019-03-24T06:43:06.164Z,5.00
2019-03-24T06:45:34.423Z,5.20
2019-03-24T06:48:02.655Z,5.50
2019-03-24T06:50:30.875Z,5.70
2019-03-24T06:52:59.122Z,5.90
2019-03-24T06:55:27.349Z,5.90
2019-03-24T06:57:55.570Z,6.10
2019-03-24T07:00:23.812Z,6.20
2019-03-24T07:02:52.045Z,6.30
2019-03-24T07:05:20.362Z,6.50
2019-03-24T07:07:48.595Z,6.70
2019-03-24T07:10:16.804Z,6.70
2019-03-24T07:12:45.053Z,6.80
2019-03-24T07:15:13.282Z,7.00
2019-03-24T07:17:41.512Z,7.10
2019-03-24T07:20:09.753Z,7.20
2019-03-24T07:22:37.981Z,7.40
2019-03-24T07:25:06.568Z,7.40
2019-03-24T07:27:34.886Z,7.60
2019-03-24T07:30:05.344Z,7.60
2019-03-24T07:32:33.603Z,7.80
2019-03-24T07:35:01.847Z,8.00
2019-03-24T07:37:30.140Z,8.30
2019-03-24T07:39:58.369Z,8.40
2019-03-24T07:42:26.608Z,8.40
2019-03-24T07:44:54.840Z,8.60
2019-03-24T07:47:23.085Z,8.80
2019-03-24T07:49:51.320Z,9.00
2019-03-24T07:52:19.555Z,9.00
2019-03-24T07:54:47.818Z,9.10
2019-03-24T07:57:16.036Z,9.40
2019-03-24T07:59:44.286Z,9.50
2019-03-24T08:02:12.504Z,9.60
2019-03-24T08:04:40.738Z,9.60
2019-03-24T08:07:08.980Z,9.60
2019-03-24T08:09:37.356Z,9.80
2019-03-24T08:12:05.630Z,9.90
2019-03-24T08:14:33.859Z,10.00
2019-03-24T08:17:02.428Z,10.10
2019-03-24T08:19:30.687Z,10.30
2019-03-24T08:21:58.908Z,10.30
2019-03-24T08:24:27.149Z,10.40
2019-03-24T08:26:55.380Z,10.50
2019-03-24T08:29:23.608Z,10.70
2019-03-24T08:31:51.853Z,10.90
2019-03-24T08:34:20.083Z,10.70
2019-03-24T08:36:48.321Z,11.00
2019-03-24T08:39:16.625Z,11.10
2019-03-24T08:41:44.866Z,11.10
2019-03-24T08:44:13.077Z,11.20
2019-03-24T08:46:41.323Z,11.20
2019-03-24T08:49:09.554Z,11.70
2019-03-24T08:51:37.858Z,11.60
2019-03-24T08:54:06.105Z,11.60
2019-03-24T08:56:34.334Z,11.60
2019-03-24T08:59:02.565Z,11.80
2019-03-24T09:01:30.813Z,12.00
2019-03-24T09:03:59.065Z,12.20
2019-03-24T09:06:27.313Z,12.20
2019-03-24T09:08:55.553Z,12.20
2019-03-24T09:11:31.166Z,12.30
2019-03-24T09:13:53.741Z,12.40
2019-03-24T09:16:21.992Z,12.40
2019-03-24T09:18:52.911Z,12.40
2019-03-24T09:21:20.225Z,12.30
2019-03-24T09:23:48.456Z,12.70
2019-03-24T09:26:16.690Z,12.70
2019-03-24T09:28:46.301Z,13.00
2019-03-24T09:31:14.553Z,13.20
2019-03-24T09:33:42.801Z,13.40
2019-03-24T09:36:11.058Z,13.30
2019-03-24T09:38:39.349Z,13.20
2019-03-24T09:41:07.577Z,13.20
2019-03-24T09:43:35.824Z,13.50
2019-03-24T09:46:04.073Z,13.40
2019-03-24T09:48:32.288Z,13.40
2019-03-24T09:51:00.541Z,13.40
2019-03-24T09:53:28.777Z,13.20
2019-03-24T09:55:57.008Z,13.50
2019-03-24T09:58:25.300Z,13.80
2019-03-24T10:00:53.524Z,13.80
2019-03-24T10:03:21.765Z,13.80
2019-03-24T10:05:50.045Z,13.80
2019-03-24T10:08:18.270Z,14.10
2019-03-24T10:10:46.519Z,14.30
2019-03-24T10:13:14.741Z,14.40
2019-03-24T12:29:20.799Z,18.10
2019-03-24T12:31:49.033Z,18.00
2019-03-24T12:34:17.272Z,18.00
2019-03-24T12:36:45.526Z,18.00
2019-03-24T12:39:13.765Z,17.90
2019-03-24T12:41:42.604Z,18.20
2019-03-24T12:44:10.832Z,18.10
2019-03-24T12:46:39.119Z,18.50
2019-03-24T12:49:07.342Z,18.60
2019-03-24T12:51:35.585Z,18.90
2019-03-24T12:54:03.818Z,18.80
2019-03-24T12:56:32.096Z,18.70
2019-03-24T12:59:00.377Z,19.00
2019-03-24T13:01:28.636Z,18.80
2019-03-24T13:03:56.881Z,19.10
2019-03-24T13:06:25.119Z,18.70
2019-03-24T13:08:53.362Z,18.90
2019-03-24T13:11:21.592Z,19.00
2019-03-24T13:13:49.841Z,18.80
2019-03-24T13:16:18.080Z,18.80
2019-03-24T13:18:46.325Z,19.20
2019-03-24T13:21:14.561Z,19.40
2019-03-24T13:23:42.834Z,19.40
2019-03-24T13:26:11.126Z,19.40
2019-03-24T13:28:39.389Z,19.00
2019-03-24T13:31:07.618Z,19.60
2019-03-24T13:33:35.866Z,20.10
2019-03-24T13:36:05.823Z,20.60
2019-03-24T13:38:34.088Z,20.50
2019-03-24T13:41:02.334Z,20.50
2019-03-24T13:43:31.232Z,19.70
2019-03-24T13:45:59.482Z,19.70
2019-03-24T13:48:27.703Z,20.00
2019-03-24T13:50:55.965Z,20.80
2019-03-24T13:53:24.200Z,21.30
2019-03-24T13:55:52.432Z,22.10
2019-03-24T13:58:20.771Z,21.80
2019-03-24T14:00:49.006Z,22.90
2019-03-24T14:03:17.246Z,23.90
2019-03-24T14:05:45.577Z,22.90
2019-03-24T14:08:13.830Z,21.90
2019-03-24T14:10:42.058Z,22.30
2019-03-24T14:13:10.302Z,22.90
2019-03-24T14:15:38.529Z,23.00
2019-03-24T14:18:06.808Z,22.80
2019-03-24T14:20:43.496Z,24.10
2019-03-24T14:23:07.505Z,24.60
2019-03-24T14:25:35.725Z,24.30
2019-03-24T14:28:03.948Z,24.60
2019-03-24T14:30:42.688Z,25.20
2019-03-24T14:33:10.942Z,24.70
2019-03-24T14:35:39.188Z,24.60
2019-03-24T14:38:07.420Z,24.90
2019-03-24T14:40:35.675Z,25.00
2019-03-24T14:43:03.900Z,24.30
2019-03-24T14:45:32.144Z,24.40
2019-03-24T14:48:00.375Z,24.00
2019-03-24T14:50:28.617Z,24.20
2019-03-24T14:52:56.863Z,24.20
2019-03-24T14:55:25.111Z,24.10
2019-03-24T14:57:53.341Z,24.40
2019-03-24T15:00:30.814Z,24.50
2019-03-24T15:02:59.036Z,24.00
2019-03-24T15:05:27.293Z,24.10
2019-03-24T15:07:55.530Z,23.80
2019-03-24T15:10:23.765Z,23.40
2019-03-24T15:12:52.004Z,23.60
2019-03-24T15:15:20.265Z,23.40
2019-03-24T15:17:48.499Z,22.90
2019-03-24T15:20:16.745Z,22.70
2019-03-24T15:22:44.975Z,23.10
2019-03-24T15:25:13.217Z,23.20
2019-03-24T15:27:44.125Z,23.00
2019-03-24T15:30:13.029Z,22.80
2019-03-24T15:32:41.261Z,23.00
2019-03-24T15:35:09.505Z,23.10
2019-03-24T15:37:37.733Z,23.50
2019-03-24T15:40:06.515Z,23.50
2019-03-24T15:42:34.762Z,23.50
2019-03-24T15:45:03.765Z,23.40
2019-03-24T15:47:32.000Z,23.30
2019-03-24T15:50:00.342Z,22.70
2019-03-24T15:52:28.660Z,22.60
2019-03-24T15:54:56.898Z,22.90
2019-03-24T15:57:25.158Z,23.00
2019-03-24T15:59:53.382Z,22.80
2019-03-24T16:02:21.611Z,22.60
2019-03-24T16:04:49.844Z,21.30
2019-03-24T16:07:18.085Z,21.10
2019-03-24T16:09:46.314Z,21.00
2019-03-24T16:12:14.553Z,21.40
2019-03-24T16:14:42.781Z,21.00
2019-03-24T16:17:11.300Z,21.10
2019-03-24T16:19:39.672Z,20.90
2019-03-24T16:22:07.909Z,20.90
2019-03-24T16:24:36.148Z,20.90
2019-03-24T16:27:04.396Z,20.70
2019-03-24T16:29:32.623Z,20.50
2019-03-24T16:32:00.866Z,20.20
2019-03-24T16:34:29.100Z,20.10
2019-03-24T16:36:57.354Z,19.50
2019-03-24T16:39:25.657Z,18.90
2019-03-24T16:41:53.896Z,18.50
2019-03-24T16:44:22.142Z,18.20
2019-03-24T16:46:50.421Z,18.20
2019-03-24T16:49:18.644Z,18.20
2019-03-24T16:51:46.881Z,18.00
2019-03-24T16:54:15.134Z,17.90
2019-03-24T16:56:43.360Z,17.80
2019-03-24T16:59:11.602Z,17.60
2019-03-24T17:01:39.830Z,17.40
2019-03-24T17:04:08.117Z,17.20
2019-03-24T17:06:36.352Z,17.00
2019-03-24T17:09:06.153Z,16.80
2019-03-24T17:11:34.389Z,16.60
2019-03-24T17:14:02.637Z,16.50
2019-03-24T17:16:30.882Z,16.30
2019-03-24T17:18:59.133Z,16.20
2019-03-24T17:21:27.371Z,16.10
2019-03-24T17:23:55.614Z,16.00
2019-03-24T17:26:23.848Z,15.80
2019-03-24T17:28:52.090Z,15.60
2019-03-24T17:31:20.321Z,15.50
2019-03-24T17:33:48.567Z,15.30
2019-03-24T17:36:16.801Z,15.20
2019-03-24T17:38:45.053Z,15.10
2019-03-24T17:41:13.290Z,15.00
2019-03-24T17:43:41.538Z,14.90
2019-03-24T17:46:09.799Z,14.80
2019-03-24T17:48:38.032Z,14.70
2019-03-24T17:51:06.281Z,14.60
2019-03-24T17:53:34.530Z,14.50
2019-03-24T17:56:02.949Z,14.40
2019-03-24T17:58:31.184Z,14.30
2019-03-24T18:00:59.417Z,14.20
2019-03-24T18:03:27.648Z,14.00
2019-03-24T18:05:55.921Z,14.00
2019-03-24T18:08:24.153Z,13.90
2019-03-24T18:10:52.393Z,13.80
2019-03-24T18:13:20.701Z,13.70
2019-03-24T18:15:48.984Z,13.70
2019-03-24T18:18:17.231Z,13.60
2019-03-24T18:20:45.535Z,13.50
2019-03-24T18:23:13.849Z,13.40
2019-03-24T18:25:42.485Z,13.40
2019-03-24T18:28:10.879Z,13.30
2019-03-24T18:30:39.143Z,13.30
2019-03-24T18:33:07.425Z,13.20
2019-03-24T18:35:35.698Z,13.10
2019-03-24T18:38:04.075Z,13.10
2019-03-24T18:40:32.326Z,13.00
2019-03-24T18:43:01.262Z,13.00
2019-03-24T18:45:29.570Z,12.80
2019-03-24T18:47:58.159Z,12.60
2019-03-24T18:50:26.552Z,12.50
2019-03-24T18:52:55.449Z,12.40
2019-03-24T18:55:24.133Z,12.30
2019-03-24T18:57:53.920Z,12.30
2019-03-24T19:00:23.712Z,12.30
2019-03-24T19:02:53.379Z,12.20
2019-03-24T19:05:22.611Z,12.20
2019-03-24T19:07:51.590Z,12.20
2019-03-24T19:10:20.733Z,12.20
2019-03-24T19:12:49.438Z,12.10
2019-03-24T19:15:39.595Z,12.10
2019-03-24T19:18:08.618Z,12.00
2019-03-24T19:20:37.613Z,11.90
2019-03-24T19:23:06.827Z,11.90
2019-03-24T19:25:36.728Z,11.80
2019-03-24T19:28:06.619Z,11.80
2019-03-24T19:30:38.374Z,11.70
2019-03-24T19:33:08.537Z,11.70
2019-03-24T19:35:38.794Z,11.60
2019-03-24T19:38:08.529Z,11.60
2019-03-24T19:40:38.421Z,11.50
2019-03-24T19:43:08.167Z,11.50
2019-03-24T19:45:37.881Z,11.40
2019-03-24T19:48:08.036Z,11.40
2019-03-24T19:50:38.004Z,11.30
2019-03-24T19:53:08.011Z,11.30
2019-03-24T19:55:37.775Z,11.30
2019-03-24T19:58:07.557Z,11.30
2019-03-24T20:00:37.407Z,11.30
2019-03-24T20:03:07.507Z,11.30
2019-03-24T20:05:37.440Z,11.20
2019-03-24T20:08:07.656Z,11.20
2019-03-24T20:10:37.515Z,11.10
2019-03-24T20:13:07.328Z,11.00
2019-03-24T20:15:37.627Z,11.00
2019-03-24T20:18:07.229Z,11.00
2019-03-24T20:20:37.132Z,11.00
2019-03-24T20:23:06.896Z,10.90
2019-03-24T20:25:37.698Z,10.80
2019-03-24T20:28:07.791Z,10.70
2019-03-24T20:30:38.715Z,10.80
2019-03-24T20:33:09.997Z,10.60
2019-03-24T20:35:40.394Z,10.50
2019-03-24T20:38:10.166Z,10.40
2019-03-24T20:40:40.188Z,10.40
2019-03-24T20:43:10.650Z,10.30
2019-03-24T20:45:40.677Z,10.30
2019-03-24T20:48:10.406Z,10.20
2019-03-24T20:50:40.046Z,10.10
2019-03-24T20:53:18.038Z,10.10
2019-03-24T20:55:41.312Z,10.00
2019-03-24T20:58:11.483Z,10.00
2019-03-24T21:00:41.259Z,9.90
2019-03-24T21:03:10.273Z,9.80
2019-03-24T21:05:39.782Z,9.90
2019-03-24T21:08:09.047Z,9.90
2019-03-24T21:10:37.386Z,9.90
2019-03-24T21:13:13.379Z,9.80
2019-03-24T21:15:41.641Z,9.80
2019-03-24T21:18:11.661Z,9.70
2019-03-24T21:20:39.926Z,9.80
2019-03-24T21:23:08.178Z,9.70
2019-03-24T21:25:36.409Z,9.70
2019-03-24T21:28:04.880Z,9.60
2019-03-24T21:30:37.417Z,9.50
2019-03-24T21:33:05.749Z,9.50
2019-03-24T21:35:33.975Z,9.50
2019-03-24T21:38:02.261Z,9.50
2019-03-24T21:40:30.545Z,9.50
2019-03-24T21:42:58.781Z,9.30
2019-03-24T21:45:27.013Z,9.10
2019-03-24T21:47:55.272Z,9.00
2019-03-24T21:50:23.499Z,9.00
2019-03-24T21:52:51.821Z,9.00
2019-03-24T21:55:20.096Z,8.90
2019-03-24T21:57:57.127Z,8.90
2019-03-24T22:00:21.618Z,8.80
2019-03-24T22:02:49.991Z,8.90
2019-03-24T22:05:18.218Z,8.70
2019-03-24T22:07:46.444Z,8.60
2019-03-24T22:10:16.410Z,8.50
2019-03-24T22:12:44.659Z,8.50
2019-03-24T22:15:12.897Z,8.70
2019-03-24T22:17:41.206Z,8.70
2019-03-24T22:20:13.893Z,8.80
2019-03-24T22:22:43.789Z,8.70
2019-03-24T22:25:13.500Z,8.60
2019-03-24T22:27:41.760Z,8.60
2019-03-24T22:30:13.008Z,8.60
2019-03-24T22:32:41.272Z,8.50
2019-03-24T22:35:09.532Z,8.50
2019-03-24T22:37:39.534Z,8.40
2019-03-24T22:40:07.942Z,8.40
2019-03-24T22:42:36.207Z,8.40
2019-03-24T22:45:05.233Z,8.40
2019-03-24T22:47:33.517Z,8.30
2019-03-24T22:50:01.765Z,8.20
2019-03-24T22:52:30.029Z,8.20
2019-03-24T22:54:58.257Z,8.30
2019-03-24T22:57:26.501Z,8.30
2019-03-24T22:59:54.739Z,8.30
2019-03-24T23:02:22.976Z,8.20
2019-03-24T23:04:51.197Z,8.20
2019-03-24T23:07:19.459Z,8.30
2019-03-24T23:09:47.742Z,8.30
2019-03-24T23:12:16.008Z,8.30
2019-03-24T23:14:44.236Z,8.30
2019-03-24T23:17:12.478Z,8.30
2019-03-24T23:19:40.754Z,8.20
2019-03-24T23:22:09.037Z,8.10
2019-03-24T23:24:37.304Z,8.00
2019-03-24T23:27:05.533Z,8.20
2019-03-24T23:29:33.764Z,8.20
2019-03-24T23:32:01.996Z,8.20
2019-03-24T23:34:30.229Z,8.20
2019-03-24T23:36:58.480Z,8.10
2019-03-24T23:39:27.325Z,8.00
2019-03-24T23:41:55.647Z,8.10
2019-03-24T23:44:23.884Z,8.00
2019-03-24T23:46:52.121Z,8.00
2019-03-24T23:49:20.403Z,8.10
2019-03-24T23:51:48.679Z,8.00
2019-03-24T23:54:26.573Z,7.90
2019-03-24T23:56:46.873Z,7.80
2019-03-24T23:59:15.108Z,7.90
